sensor_id;sensor_type;location;lat;lon;timestamp;P1;P2;P0
55911;PMS5003;41823;45.534;-73.332;2022-10-03T00:02:33;44;42;
55911;PMS5003;41823;45.534;-73.332;2022-10-03T00:05:22;27;24;
55911;PMS5003;41823;45.534;-73.332;2022-10-03T00:08:02;12;12;
55911;PMS5003;41823;45.534;-73.332;2022-10-03T00:10:39;6;5;
55911;PMS5003;41823;45.534;-73.332;2022-10-03T00:13:19;2;2;
55911;PMS5003;41823;45.534;-73.332;2022-10-03T00:15:54;2;2;
55911;PMS5003;41823;45.534;-73.332;2022-10-03T00:18:39;1;1;
55911;PMS5003;41823;45.534;-73.332;2022-10-03T00:21:22;1;1;
55911;PMS5003;41823;45.534;-73.332;2022-10-03T00:24:01;0;0;
55911;PMS5003;41823;45.534;-73.332;2022-10-03T00:26:43;0;0;
55911;PMS5003;41823;45.534;-73.332;2022-10-03T00:29:25;0;0;
55911;PMS5003;41823;45.534;-73.332;2022-10-03T00:32:10;1;0;
55911;PMS5003;41823;45.534;-73.332;2022-10-03T00:34:53;1;1;
55911;PMS5003;41823;45.534;-73.332;2022-10-03T00:37:29;1;1;
55911;PMS5003;41823;45.534;-73.332;2022-10-03T00:40:25;0;0;
55911;PMS5003;41823;45.534;-73.332;2022-10-03T00:43:32;0;0;
55911;PMS5003;41823;45.534;-73.332;2022-10-03T00:46:44;0;0;
55911;PMS5003;41823;45.534;-73.332;2022-10-03T00:49:34;0;0;
55911;PMS5003;41823;45.534;-73.332;2022-10-03T00:52:22;0;0;
55911;PMS5003;41823;45.534;-73.332;2022-10-03T00:55:05;0;0;
55911;PMS5003;41823;45.534;-73.332;2022-10-03T00:57:46;0;0;
55911;PMS5003;41823;45.534;-73.332;2022-10-03T01:00:28;0;0;
55911;PMS5003;41823;45.534;-73.332;2022-10-03T01:03:06;0;0;
55911;PMS5003;41823;45.534;-73.332;2022-10-03T01:05:48;0;0;
55911;PMS5003;41823;45.534;-73.332;2022-10-03T01:08:46;0;0;
55911;PMS5003;41823;45.534;-73.332;2022-10-03T01:11:27;0;0;
55911;PMS5003;41823;45.534;-73.332;2022-10-03T01:14:10;0;0;
55911;PMS5003;41823;45.534;-73.332;2022-10-03T01:16:58;1;0;
55911;PMS5003;41823;45.534;-73.332;2022-10-03T01:19:40;0;0;
55911;PMS5003;41823;45.534;-73.332;2022-10-03T01:22:28;0;0;
55911;PMS5003;41823;45.534;-73.332;2022-10-03T01:25:11;325;286;
55911;PMS5003;41823;45.534;-73.332;2022-10-03T01:27:53;382;347;
55911;PMS5003;41823;45.534;-73.332;2022-10-03T01:30:29;431;379;
55911;PMS5003;41823;45.534;-73.332;2022-10-03T01:33:05;430;390;
55911;PMS5003;41823;45.534;-73.332;2022-10-03T01:35:39;251;225;
55911;PMS5003;41823;45.534;-73.332;2022-10-03T01:38:19;124;118;
55911;PMS5003;41823;45.534;-73.332;2022-10-03T01:40:55;68;64;
55911;PMS5003;41823;45.534;-73.332;2022-10-03T01:43:31;43;40;
55911;PMS5003;41823;45.534;-73.332;2022-10-03T01:46:10;23;23;
55911;PMS5003;41823;45.534;-73.332;2022-10-03T01:48:46;12;11;
55911;PMS5003;41823;45.534;-73.332;2022-10-03T01:51:21;6;6;
55911;PMS5003;41823;45.534;-73.332;2022-10-03T01:53:59;4;4;
55911;PMS5003;41823;45.534;-73.332;2022-10-03T01:56:40;2;2;
55911;PMS5003;41823;45.534;-73.332;2022-10-03T01:59:15;0;0;
55911;PMS5003;41823;45.534;-73.332;2022-10-03T02:01:49;1;1;
55911;PMS5003;41823;45.534;-73.332;2022-10-03T02:04:27;0;0;
55911;PMS5003;41823;45.534;-73.332;2022-10-03T02:07:06;1;1;
55911;PMS5003;41823;45.534;-73.332;2022-10-03T02:09:49;0;0;
55911;PMS5003;41823;45.534;-73.332;2022-10-03T02:12:29;0;0;
55911;PMS5003;41823;45.534;-73.332;2022-10-03T02:15:07;0;0;
55911;PMS5003;41823;45.534;-73.332;2022-10-03T02:17:43;0;0;
55911;PMS5003;41823;45.534;-73.332;2022-10-03T02:20:20;0;0;
55911;PMS5003;41823;45.534;-73.332;2022-10-03T02:22:54;0;0;
55911;PMS5003;41823;45.534;-73.332;2022-10-03T02:25:24;0;0;
55911;PMS5003;41823;45.534;-73.332;2022-10-03T02:28:13;1;0;
55911;PMS5003;41823;45.534;-73.332;2022-10-03T02:31:03;1;0;
55911;PMS5003;41823;45.534;-73.332;2022-10-03T02:33:52;0;0;
55911;PMS5003;41823;45.534;-73.332;2022-10-03T02:37:35;0;0;
55911;PMS5003;41823;45.534;-73.332;2022-10-03T02:40:30;1;0;
55911;PMS5003;41823;45.534;-73.332;2022-10-03T02:43:30;0;0;
55911;PMS5003;41823;45.534;-73.332;2022-10-03T02:46:19;0;0;
55911;PMS5003;41823;45.534;-73.332;2022-10-03T02:49:18;0;0;
55911;PMS5003;41823;45.534;-73.332;2022-10-03T02:52:29;1;1;
55911;PMS5003;41823;45.534;-73.332;2022-10-03T02:55:19;0;0;
55911;PMS5003;41823;45.534;-73.332;2022-10-03T02:58:22;0;0;
55911;PMS5003;41823;45.534;-73.332;2022-10-03T03:01:18;0;0;
55911;PMS5003;41823;45.534;-73.332;2022-10-03T03:05:13;1;0;
55911;PMS5003;41823;45.534;-73.332;2022-10-03T03:07:59;0;0;
55911;PMS5003;41823;45.534;-73.332;2022-10-03T03:10:54;1;0;
55911;PMS5003;41823;45.534;-73.332;2022-10-03T03:13:40;0;0;
55911;PMS5003;41823;45.534;-73.332;2022-10-03T03:16:34;0;0;
55911;PMS5003;41823;45.534;-73.332;2022-10-03T03:19:17;1;0;
55911;PMS5003;41823;45.534;-73.332;2022-10-03T03:22:03;0;0;
55911;PMS5003;41823;45.534;-73.332;2022-10-03T03:24:43;0;0;
55911;PMS5003;41823;45.534;-73.332;2022-10-03T03:27:32;0;0;
55911;PMS5003;41823;45.534;-73.332;2022-10-03T03:30:11;0;0;
55911;PMS5003;41823;45.534;-73.332;2022-10-03T03:32:45;1;0;
55911;PMS5003;41823;45.534;-73.332;2022-10-03T03:35:27;0;0;
55911;PMS5003;41823;45.534;-73.332;2022-10-03T03:38:08;1;1;
55911;PMS5003;41823;45.534;-73.332;2022-10-03T03:40:53;0;0;
55911;PMS5003;41823;45.534;-73.332;2022-10-03T03:43:36;0;0;
55911;PMS5003;41823;45.534;-73.332;2022-10-03T03:46:18;0;0;
55911;PMS5003;41823;45.534;-73.332;2022-10-03T03:48:59;0;0;
55911;PMS5003;41823;45.534;-73.332;2022-10-03T03:51:39;154;146;
55911;PMS5003;41823;45.534;-73.332;2022-10-03T03:54:23;359;315;
55911;PMS5003;41823;45.534;-73.332;2022-10-03T03:57:15;435;366;
55911;PMS5003;41823;45.534;-73.332;2022-10-03T04:00:00;250;215;
55911;PMS5003;41823;45.534;-73.332;2022-10-03T04:02:42;130;115;
55911;PMS5003;41823;45.534;-73.332;2022-10-03T04:05:25;71;67;
55911;PMS5003;41823;45.534;-73.332;2022-10-03T04:08:09;40;36;
55911;PMS5003;41823;45.534;-73.332;2022-10-03T04:10:53;20;20;
55911;PMS5003;41823;45.534;-73.332;2022-10-03T04:13:38;10;9;
55911;PMS5003;41823;45.534;-73.332;2022-10-03T04:16:21;6;6;
55911;PMS5003;41823;45.534;-73.332;2022-10-03T04:18:58;3;3;
55911;PMS5003;41823;45.534;-73.332;2022-10-03T04:21:36;1;1;
55911;PMS5003;41823;45.534;-73.332;2022-10-03T04:24:22;2;1;
55911;PMS5003;41823;45.534;-73.332;2022-10-03T04:27:15;1;1;
55911;PMS5003;41823;45.534;-73.332;2022-10-03T04:30:00;0;0;
55911;PMS5003;41823;45.534;-73.332;2022-10-03T04:32:47;0;0;
55911;PMS5003;41823;45.534;-73.332;2022-10-03T04:35:27;1;1;
55911;PMS5003;41823;45.534;-73.332;2022-10-03T04:38:14;0;0;
55911;PMS5003;41823;45.534;-73.332;2022-10-03T04:40:54;1;1;
55911;PMS5003;41823;45.534;-73.332;2022-10-03T04:43:33;1;1;
55911;PMS5003;41823;45.534;-73.332;2022-10-03T04:46:17;2;2;
55911;PMS5003;41823;45.534;-73.332;2022-10-03T04:48:55;1;1;
55911;PMS5003;41823;45.534;-73.332;2022-10-03T04:51:37;2;2;
55911;PMS5003;41823;45.534;-73.332;2022-10-03T04:54:18;1;1;
55911;PMS5003;41823;45.534;-73.332;2022-10-03T04:56:57;1;1;
55911;PMS5003;41823;45.534;-73.332;2022-10-03T04:59:35;1;1;
55911;PMS5003;41823;45.534;-73.332;2022-10-03T05:02:09;1;1;
55911;PMS5003;41823;45.534;-73.332;2022-10-03T05:04:53;1;1;
55911;PMS5003;41823;45.534;-73.332;2022-10-03T05:08:11;2;2;
55911;PMS5003;41823;45.534;-73.332;2022-10-03T05:10:51;1;1;
55911;PMS5003;41823;45.534;-73.332;2022-10-03T05:13:30;0;0;
55911;PMS5003;41823;45.534;-73.332;2022-10-03T05:16:07;1;0;
55911;PMS5003;41823;45.534;-73.332;2022-10-03T05:18:45;2;2;
55911;PMS5003;41823;45.534;-73.332;2022-10-03T05:21:21;0;0;
55911;PMS5003;41823;45.534;-73.332;2022-10-03T05:23:59;2;2;
55911;PMS5003;41823;45.534;-73.332;2022-10-03T05:26:40;210;192;
55911;PMS5003;41823;45.534;-73.332;2022-10-03T05:29:19;427;373;
55911;PMS5003;41823;45.534;-73.332;2022-10-03T05:32:02;403;359;
55911;PMS5003;41823;45.534;-73.332;2022-10-03T05:34:48;219;193;
55911;PMS5003;41823;45.534;-73.332;2022-10-03T05:37:32;117;109;
55911;PMS5003;41823;45.534;-73.332;2022-10-03T05:40:20;65;58;
55911;PMS5003;41823;45.534;-73.332;2022-10-03T05:42:58;41;34;
55911;PMS5003;41823;45.534;-73.332;2022-10-03T05:45:31;18;18;
55911;PMS5003;41823;45.534;-73.332;2022-10-03T05:48:14;15;12;
55911;PMS5003;41823;45.534;-73.332;2022-10-03T05:51:04;7;6;
55911;PMS5003;41823;45.534;-73.332;2022-10-03T05:53:54;5;4;
55911;PMS5003;41823;45.534;-73.332;2022-10-03T05:56:43;4;2;
55911;PMS5003;41823;45.534;-73.332;2022-10-03T05:59:35;1;1;
55911;PMS5003;41823;45.534;-73.332;2022-10-03T06:02:23;1;1;
55911;PMS5003;41823;45.534;-73.332;2022-10-03T06:05:43;1;1;
55911;PMS5003;41823;45.534;-73.332;2022-10-03T06:08:30;0;0;
55911;PMS5003;41823;45.534;-73.332;2022-10-03T06:11:24;1;1;
55911;PMS5003;41823;45.534;-73.332;2022-10-03T06:14:13;0;0;
55911;PMS5003;41823;45.534;-73.332;2022-10-03T06:16:54;0;0;
55911;PMS5003;41823;45.534;-73.332;2022-10-03T06:19:37;1;1;
55911;PMS5003;41823;45.534;-73.332;2022-10-03T06:22:23;1;1;
55911;PMS5003;41823;45.534;-73.332;2022-10-03T06:25:15;1;1;
55911;PMS5003;41823;45.534;-73.332;2022-10-03T06:28:48;0;0;
55911;PMS5003;41823;45.534;-73.332;2022-10-03T06:32:08;0;0;
55911;PMS5003;41823;45.534;-73.332;2022-10-03T06:34:48;0;0;
55911;PMS5003;41823;45.534;-73.332;2022-10-03T06:37:58;1;1;
55911;PMS5003;41823;45.534;-73.332;2022-10-03T06:41:26;2;1;
55911;PMS5003;41823;45.534;-73.332;2022-10-03T06:43:49;2;1;
55911;PMS5003;41823;45.534;-73.332;2022-10-03T06:46:41;2;0;
55911;PMS5003;41823;45.534;-73.332;2022-10-03T06:49:27;4;1;
55911;PMS5003;41823;45.534;-73.332;2022-10-03T06:52:13;1;1;
55911;PMS5003;41823;45.534;-73.332;2022-10-03T06:57:15;1;1;
55911;PMS5003;41823;45.534;-73.332;2022-10-03T07:00:00;1;1;
55911;PMS5003;41823;45.534;-73.332;2022-10-03T07:02:41;2;2;
55911;PMS5003;41823;45.534;-73.332;2022-10-03T07:05:57;0;0;
55911;PMS5003;41823;45.534;-73.332;2022-10-03T07:08:43;1;1;
55911;PMS5003;41823;45.534;-73.332;2022-10-03T07:12:13;1;1;
55911;PMS5003;41823;45.534;-73.332;2022-10-03T07:14:40;1;1;
55911;PMS5003;41823;45.534;-73.332;2022-10-03T07:17:29;0;0;
55911;PMS5003;41823;45.534;-73.332;2022-10-03T07:20:21;2;2;
55911;PMS5003;41823;45.534;-73.332;2022-10-03T07:23:43;2;2;
55911;PMS5003;41823;45.534;-73.332;2022-10-03T07:26:43;2;2;
55911;PMS5003;41823;45.534;-73.332;2022-10-03T07:29:27;0;0;
55911;PMS5003;41823;45.534;-73.332;2022-10-03T07:32:14;1;1;
55911;PMS5003;41823;45.534;-73.332;2022-10-03T07:35:31;0;0;
55911;PMS5003;41823;45.534;-73.332;2022-10-03T07:38:17;3;1;
55911;PMS5003;41823;45.534;-73.332;2022-10-03T07:41:14;1;1;
55911;PMS5003;41823;45.534;-73.332;2022-10-03T07:44:04;0;0;
55911;PMS5003;41823;45.534;-73.332;2022-10-03T07:47:19;1;1;
55911;PMS5003;41823;45.534;-73.332;2022-10-03T07:50:21;1;1;
55911;PMS5003;41823;45.534;-73.332;2022-10-03T07:53:06;1;1;
55911;PMS5003;41823;45.534;-73.332;2022-10-03T07:55:51;0;0;
55911;PMS5003;41823;45.534;-73.332;2022-10-03T07:58:35;1;1;
55911;PMS5003;41823;45.534;-73.332;2022-10-03T08:01:37;0;0;
55911;PMS5003;41823;45.534;-73.332;2022-10-03T08:04:29;1;1;
55911;PMS5003;41823;45.534;-73.332;2022-10-03T08:07:24;2;1;
55911;PMS5003;41823;45.534;-73.332;2022-10-03T08:10:08;2;2;
55911;PMS5003;41823;45.534;-73.332;2022-10-03T08:12:51;2;2;
55911;PMS5003;41823;45.534;-73.332;2022-10-03T08:15:41;1;0;
55911;PMS5003;41823;45.534;-73.332;2022-10-03T08:18:33;1;1;
55911;PMS5003;41823;45.534;-73.332;2022-10-03T08:21:25;1;1;
55911;PMS5003;41823;45.534;-73.332;2022-10-03T08:24:08;1;1;
55911;PMS5003;41823;45.534;-73.332;2022-10-03T08:27:10;0;0;
55911;PMS5003;41823;45.534;-73.332;2022-10-03T08:30:04;1;1;
55911;PMS5003;41823;45.534;-73.332;2022-10-03T08:32:48;2;2;
55911;PMS5003;41823;45.534;-73.332;2022-10-03T08:35:25;1;1;
55911;PMS5003;41823;45.534;-73.332;2022-10-03T08:40:26;1;0;
55911;PMS5003;41823;45.534;-73.332;2022-10-03T08:42:58;1;0;
55911;PMS5003;41823;45.534;-73.332;2022-10-03T08:45:53;0;0;
55911;PMS5003;41823;45.534;-73.332;2022-10-03T08:48:36;1;1;
55911;PMS5003;41823;45.534;-73.332;2022-10-03T08:51:24;3;1;
55911;PMS5003;41823;45.534;-73.332;2022-10-03T08:55:22;1;1;
55911;PMS5003;41823;45.534;-73.332;2022-10-03T08:58:44;1;1;
55911;PMS5003;41823;45.534;-73.332;2022-10-03T09:01:33;2;2;
55911;PMS5003;41823;45.534;-73.332;2022-10-03T09:04:28;1;1;
55911;PMS5003;41823;45.534;-73.332;2022-10-03T09:07:26;1;1;
55911;PMS5003;41823;45.534;-73.332;2022-10-03T09:12:30;3;2;
55911;PMS5003;41823;45.534;-73.332;2022-10-03T09:15:38;1;1;
55911;PMS5003;41823;45.534;-73.332;2022-10-03T09:18:59;2;2;
55911;PMS5003;41823;45.534;-73.332;2022-10-03T09:21:55;1;1;
55911;PMS5003;41823;45.534;-73.332;2022-10-03T09:25:17;1;1;
55911;PMS5003;41823;45.534;-73.332;2022-10-03T09:28:39;1;1;
55911;PMS5003;41823;45.534;-73.332;2022-10-03T09:32:01;0;0;
55911;PMS5003;41823;45.534;-73.332;2022-10-03T09:35:05;1;1;
55911;PMS5003;41823;45.534;-73.332;2022-10-03T09:38:21;1;1;
55911;PMS5003;41823;45.534;-73.332;2022-10-03T09:41:41;3;2;
55911;PMS5003;41823;45.534;-73.332;2022-10-03T09:44:57;3;3;
55911;PMS5003;41823;45.534;-73.332;2022-10-03T09:47:46;1;1;
55911;PMS5003;41823;45.534;-73.332;2022-10-03T09:50:41;2;1;
55911;PMS5003;41823;45.534;-73.332;2022-10-03T09:53:26;2;2;
55911;PMS5003;41823;45.534;-73.332;2022-10-03T09:56:14;1;1;
55911;PMS5003;41823;45.534;-73.332;2022-10-03T09:59:33;1;1;
55911;PMS5003;41823;45.534;-73.332;2022-10-03T10:02:25;1;1;
55911;PMS5003;41823;45.534;-73.332;2022-10-03T10:05:20;1;1;
55911;PMS5003;41823;45.534;-73.332;2022-10-03T10:08:26;2;1;
55911;PMS5003;41823;45.534;-73.332;2022-10-03T10:11:13;3;2;
55911;PMS5003;41823;45.534;-73.332;2022-10-03T10:15:01;2;2;
55911;PMS5003;41823;45.534;-73.332;2022-10-03T10:20:06;1;1;
55911;PMS5003;41823;45.534;-73.332;2022-10-03T10:23:26;1;1;
55911;PMS5003;41823;45.534;-73.332;2022-10-03T10:30:09;3;3;
55911;PMS5003;41823;45.534;-73.332;2022-10-03T10:32:53;2;2;
55911;PMS5003;41823;45.534;-73.332;2022-10-03T10:35:59;1;1;
55911;PMS5003;41823;45.534;-73.332;2022-10-03T10:41:42;1;1;
55911;PMS5003;41823;45.534;-73.332;2022-10-03T10:44:34;1;1;
55911;PMS5003;41823;45.534;-73.332;2022-10-03T10:47:53;2;2;
55911;PMS5003;41823;45.534;-73.332;2022-10-03T10:53:53;2;2;
55911;PMS5003;41823;45.534;-73.332;2022-10-03T10:56:56;2;2;
55911;PMS5003;41823;45.534;-73.332;2022-10-03T11:00:03;2;2;
55911;PMS5003;41823;45.534;-73.332;2022-10-03T11:04:25;1;1;
55911;PMS5003;41823;45.534;-73.332;2022-10-03T11:07:38;2;2;
55911;PMS5003;41823;45.534;-73.332;2022-10-03T11:10:42;4;2;
55911;PMS5003;41823;45.534;-73.332;2022-10-03T11:14:39;4;3;
55911;PMS5003;41823;45.534;-73.332;2022-10-03T11:18:11;2;2;
55911;PMS5003;41823;45.534;-73.332;2022-10-03T11:20:55;2;2;
55911;PMS5003;41823;45.534;-73.332;2022-10-03T11:24:01;2;2;
55911;PMS5003;41823;45.534;-73.332;2022-10-03T11:27:38;1;1;
55911;PMS5003;41823;45.534;-73.332;2022-10-03T11:32:10;1;1;
55911;PMS5003;41823;45.534;-73.332;2022-10-03T11:35:06;3;3;
55911;PMS5003;41823;45.534;-73.332;2022-10-03T11:37:53;1;1;
55911;PMS5003;41823;45.534;-73.332;2022-10-03T11:40:31;2;2;
55911;PMS5003;41823;45.534;-73.332;2022-10-03T11:45:22;2;1;
55911;PMS5003;41823;45.534;-73.332;2022-10-03T11:47:57;2;2;
55911;PMS5003;41823;45.534;-73.332;2022-10-03T11:50:41;2;2;
55911;PMS5003;41823;45.534;-73.332;2022-10-03T11:53:38;2;2;
55911;PMS5003;41823;45.534;-73.332;2022-10-03T11:56:18;6;3;
55911;PMS5003;41823;45.534;-73.332;2022-10-03T11:59:04;3;3;
55911;PMS5003;41823;45.534;-73.332;2022-10-03T12:01:52;3;3;
55911;PMS5003;41823;45.534;-73.332;2022-10-03T12:04:36;4;2;
55911;PMS5003;41823;45.534;-73.332;2022-10-03T12:07:17;3;3;
55911;PMS5003;41823;45.534;-73.332;2022-10-03T12:10:00;4;3;
55911;PMS5003;41823;45.534;-73.332;2022-10-03T12:12:39;3;3;
55911;PMS5003;41823;45.534;-73.332;2022-10-03T12:15:17;2;2;
55911;PMS5003;41823;45.534;-73.332;2022-10-03T12:17:54;3;3;
55911;PMS5003;41823;45.534;-73.332;2022-10-03T12:20:31;3;3;
55911;PMS5003;41823;45.534;-73.332;2022-10-03T12:23:17;3;3;
55911;PMS5003;41823;45.534;-73.332;2022-10-03T12:25:56;3;2;
55911;PMS5003;41823;45.534;-73.332;2022-10-03T12:28:27;3;3;
55911;PMS5003;41823;45.534;-73.332;2022-10-03T12:31:02;4;3;
55911;PMS5003;41823;45.534;-73.332;2022-10-03T12:33:44;4;4;
55911;PMS5003;41823;45.534;-73.332;2022-10-03T12:36:17;6;5;
55911;PMS5003;41823;45.534;-73.332;2022-10-03T12:38:55;5;4;
55911;PMS5003;41823;45.534;-73.332;2022-10-03T12:41:39;4;4;
55911;PMS5003;41823;45.534;-73.332;2022-10-03T12:44:25;5;5;
55911;PMS5003;41823;45.534;-73.332;2022-10-03T12:47:12;4;4;
55911;PMS5003;41823;45.534;-73.332;2022-10-03T12:49:54;7;6;
55911;PMS5003;41823;45.534;-73.332;2022-10-03T12:52:30;5;4;
55911;PMS5003;41823;45.534;-73.332;2022-10-03T12:55:09;5;4;
55911;PMS5003;41823;45.534;-73.332;2022-10-03T12:57:52;6;6;
55911;PMS5003;41823;45.534;-73.332;2022-10-03T13:00:26;4;4;
55911;PMS5003;41823;45.534;-73.332;2022-10-03T13:03:07;4;3;
55911;PMS5003;41823;45.534;-73.332;2022-10-03T13:05:49;3;2;
55911;PMS5003;41823;45.534;-73.332;2022-10-03T13:08:32;4;3;
55911;PMS5003;41823;45.534;-73.332;2022-10-03T13:11:16;6;5;
55911;PMS5003;41823;45.534;-73.332;2022-10-03T13:13:58;3;3;
55911;PMS5003;41823;45.534;-73.332;2022-10-03T13:16:37;2;2;
55911;PMS5003;41823;45.534;-73.332;2022-10-03T13:19:13;3;3;
55911;PMS5003;41823;45.534;-73.332;2022-10-03T13:21:51;1;1;
55911;PMS5003;41823;45.534;-73.332;2022-10-03T13:24:27;3;3;
55911;PMS5003;41823;45.534;-73.332;2022-10-03T13:27:03;2;2;
55911;PMS5003;41823;45.534;-73.332;2022-10-03T13:29:38;1;1;
55911;PMS5003;41823;45.534;-73.332;2022-10-03T13:32:13;3;1;
55911;PMS5003;41823;45.534;-73.332;2022-10-03T13:34:55;2;2;
55911;PMS5003;41823;45.534;-73.332;2022-10-03T13:37:29;0;0;
55911;PMS5003;41823;45.534;-73.332;2022-10-03T13:40:03;1;1;
55911;PMS5003;41823;45.534;-73.332;2022-10-03T13:42:37;1;1;
55911;PMS5003;41823;45.534;-73.332;2022-10-03T13:45:11;2;2;
55911;PMS5003;41823;45.534;-73.332;2022-10-03T13:47:44;1;1;
55911;PMS5003;41823;45.534;-73.332;2022-10-03T13:50:18;1;1;
55911;PMS5003;41823;45.534;-73.332;2022-10-03T13:52:54;2;1;
55911;PMS5003;41823;45.534;-73.332;2022-10-03T13:55:28;1;1;
55911;PMS5003;41823;45.534;-73.332;2022-10-03T13:58:13;2;2;
55911;PMS5003;41823;45.534;-73.332;2022-10-03T14:00:59;2;2;
55911;PMS5003;41823;45.534;-73.332;2022-10-03T14:03:36;2;2;
55911;PMS5003;41823;45.534;-73.332;2022-10-03T14:06:16;1;1;
55911;PMS5003;41823;45.534;-73.332;2022-10-03T14:08:56;0;0;
55911;PMS5003;41823;45.534;-73.332;2022-10-03T14:11:39;1;1;
55911;PMS5003;41823;45.534;-73.332;2022-10-03T14:15:00;2;1;
55911;PMS5003;41823;45.534;-73.332;2022-10-03T14:17:40;1;1;
55911;PMS5003;41823;45.534;-73.332;2022-10-03T14:20:19;1;1;
55911;PMS5003;41823;45.534;-73.332;2022-10-03T14:22:59;1;1;
55911;PMS5003;41823;45.534;-73.332;2022-10-03T14:25:42;1;1;
55911;PMS5003;41823;45.534;-73.332;2022-10-03T14:28:18;1;1;
55911;PMS5003;41823;45.534;-73.332;2022-10-03T14:30:55;1;1;
55911;PMS5003;41823;45.534;-73.332;2022-10-03T14:33:30;1;1;
55911;PMS5003;41823;45.534;-73.332;2022-10-03T14:36:10;0;0;
55911;PMS5003;41823;45.534;-73.332;2022-10-03T14:38:53;1;1;
55911;PMS5003;41823;45.534;-73.332;2022-10-03T14:41:37;0;0;
55911;PMS5003;41823;45.534;-73.332;2022-10-03T14:44:12;2;1;
55911;PMS5003;41823;45.534;-73.332;2022-10-03T14:46:47;2;2;
55911;PMS5003;41823;45.534;-73.332;2022-10-03T14:49:22;1;1;
55911;PMS5003;41823;45.534;-73.332;2022-10-03T14:51:54;1;1;
55911;PMS5003;41823;45.534;-73.332;2022-10-03T14:54:29;1;1;
55911;PMS5003;41823;45.534;-73.332;2022-10-03T14:56:57;0;0;
55911;PMS5003;41823;45.534;-73.332;2022-10-03T14:59:50;1;1;
55911;PMS5003;41823;45.534;-73.332;2022-10-03T15:02:24;1;1;
55911;PMS5003;41823;45.534;-73.332;2022-10-03T15:04:56;2;1;
55911;PMS5003;41823;45.534;-73.332;2022-10-03T15:07:35;1;1;
55911;PMS5003;41823;45.534;-73.332;2022-10-03T15:10:08;1;1;
55911;PMS5003;41823;45.534;-73.332;2022-10-03T15:12:41;0;0;
55911;PMS5003;41823;45.534;-73.332;2022-10-03T15:15:14;1;0;
55911;PMS5003;41823;45.534;-73.332;2022-10-03T15:17:45;1;1;
55911;PMS5003;41823;45.534;-73.332;2022-10-03T15:20:15;1;1;
55911;PMS5003;41823;45.534;-73.332;2022-10-03T15:22:48;0;0;
55911;PMS5003;41823;45.534;-73.332;2022-10-03T15:25:20;1;1;
55911;PMS5003;41823;45.534;-73.332;2022-10-03T15:27:52;0;0;
55911;PMS5003;41823;45.534;-73.332;2022-10-03T15:30:24;1;1;
55911;PMS5003;41823;45.534;-73.332;2022-10-03T15:32:54;1;1;
55911;PMS5003;41823;45.534;-73.332;2022-10-03T15:35:34;1;1;
55911;PMS5003;41823;45.534;-73.332;2022-10-03T15:38:07;2;1;
55911;PMS5003;41823;45.534;-73.332;2022-10-03T15:40:43;0;0;
55911;PMS5003;41823;45.534;-73.332;2022-10-03T15:43:25;1;1;
55911;PMS5003;41823;45.534;-73.332;2022-10-03T15:45:58;1;1;
55911;PMS5003;41823;45.534;-73.332;2022-10-03T15:48:31;1;1;
55911;PMS5003;41823;45.534;-73.332;2022-10-03T15:51:00;2;2;
55911;PMS5003;41823;45.534;-73.332;2022-10-03T15:53:31;0;0;
55911;PMS5003;41823;45.534;-73.332;2022-10-03T15:56:05;1;1;
55911;PMS5003;41823;45.534;-73.332;2022-10-03T15:58:37;0;0;
55911;PMS5003;41823;45.534;-73.332;2022-10-03T16:01:10;1;1;
55911;PMS5003;41823;45.534;-73.332;2022-10-03T16:03:44;1;1;
55911;PMS5003;41823;45.534;-73.332;2022-10-03T16:06:17;1;1;
55911;PMS5003;41823;45.534;-73.332;2022-10-03T16:08:54;1;1;
55911;PMS5003;41823;45.534;-73.332;2022-10-03T16:11:26;0;0;
55911;PMS5003;41823;45.534;-73.332;2022-10-03T16:14:10;0;0;
55911;PMS5003;41823;45.534;-73.332;2022-10-03T16:16:44;0;0;
55911;PMS5003;41823;45.534;-73.332;2022-10-03T16:19:22;2;1;
55911;PMS5003;41823;45.534;-73.332;2022-10-03T16:21:56;1;1;
55911;PMS5003;41823;45.534;-73.332;2022-10-03T16:24:34;1;1;
55911;PMS5003;41823;45.534;-73.332;2022-10-03T16:27:11;0;0;
55911;PMS5003;41823;45.534;-73.332;2022-10-03T16:29:44;2;2;
55911;PMS5003;41823;45.534;-73.332;2022-10-03T16:32:20;0;0;
55911;PMS5003;41823;45.534;-73.332;2022-10-03T16:34:51;0;0;
55911;PMS5003;41823;45.534;-73.332;2022-10-03T16:37:24;0;0;
55911;PMS5003;41823;45.534;-73.332;2022-10-03T16:39:56;0;0;
55911;PMS5003;41823;45.534;-73.332;2022-10-03T16:42:28;221;208;
55911;PMS5003;41823;45.534;-73.332;2022-10-03T16:45:06;313;285;
55911;PMS5003;41823;45.534;-73.332;2022-10-03T16:47:47;355;321;
55911;PMS5003;41823;45.534;-73.332;2022-10-03T16:50:18;258;237;
55911;PMS5003;41823;45.534;-73.332;2022-10-03T16:52:48;132;121;
55911;PMS5003;41823;45.534;-73.332;2022-10-03T16:55:21;65;63;
55911;PMS5003;41823;45.534;-73.332;2022-10-03T16:57:56;36;35;
55911;PMS5003;41823;45.534;-73.332;2022-10-03T17:00:32;17;17;
55911;PMS5003;41823;45.534;-73.332;2022-10-03T17:03:14;9;9;
55911;PMS5003;41823;45.534;-73.332;2022-10-03T17:05:46;5;5;
55911;PMS5003;41823;45.534;-73.332;2022-10-03T17:08:18;2;2;
55911;PMS5003;41823;45.534;-73.332;2022-10-03T17:10:51;1;1;
55911;PMS5003;41823;45.534;-73.332;2022-10-03T17:13:21;1;1;
55911;PMS5003;41823;45.534;-73.332;2022-10-03T17:15:55;2;2;
55911;PMS5003;41823;45.534;-73.332;2022-10-03T17:18:29;1;1;
55911;PMS5003;41823;45.534;-73.332;2022-10-03T17:21:07;3;2;
55911;PMS5003;41823;45.534;-73.332;2022-10-03T17:23:47;1;1;
55911;PMS5003;41823;45.534;-73.332;2022-10-03T17:26:23;0;0;
55911;PMS5003;41823;45.534;-73.332;2022-10-03T17:28:57;1;1;
55911;PMS5003;41823;45.534;-73.332;2022-10-03T17:31:37;0;0;
55911;PMS5003;41823;45.534;-73.332;2022-10-03T17:34:11;1;1;
55911;PMS5003;41823;45.534;-73.332;2022-10-03T17:36:49;2;1;
55911;PMS5003;41823;45.534;-73.332;2022-10-03T17:39:34;0;0;
55911;PMS5003;41823;45.534;-73.332;2022-10-03T17:42:14;1;0;
55911;PMS5003;41823;45.534;-73.332;2022-10-03T17:44:55;1;1;
55911;PMS5003;41823;45.534;-73.332;2022-10-03T17:47:32;0;0;
55911;PMS5003;41823;45.534;-73.332;2022-10-03T17:50:09;0;0;
55911;PMS5003;41823;45.534;-73.332;2022-10-03T17:52:42;0;0;
55911;PMS5003;41823;45.534;-73.332;2022-10-03T17:55:14;1;0;
55911;PMS5003;41823;45.534;-73.332;2022-10-03T17:57:47;1;1;
55911;PMS5003;41823;45.534;-73.332;2022-10-03T18:00:18;0;0;
55911;PMS5003;41823;45.534;-73.332;2022-10-03T18:02:52;1;1;
55911;PMS5003;41823;45.534;-73.332;2022-10-03T18:05:27;0;0;
55911;PMS5003;41823;45.534;-73.332;2022-10-03T18:08:00;1;1;
55911;PMS5003;41823;45.534;-73.332;2022-10-03T18:10:33;1;0;
55911;PMS5003;41823;45.534;-73.332;2022-10-03T18:13:06;0;0;
55911;PMS5003;41823;45.534;-73.332;2022-10-03T18:15:49;0;0;
55911;PMS5003;41823;45.534;-73.332;2022-10-03T18:18:39;0;0;
55911;PMS5003;41823;45.534;-73.332;2022-10-03T18:21:25;0;0;
55911;PMS5003;41823;45.534;-73.332;2022-10-03T18:24:10;0;0;
55911;PMS5003;41823;45.534;-73.332;2022-10-03T18:26:47;0;0;
55911;PMS5003;41823;45.534;-73.332;2022-10-03T18:29:27;0;0;
55911;PMS5003;41823;45.534;-73.332;2022-10-03T18:32:00;0;0;
55911;PMS5003;41823;45.534;-73.332;2022-10-03T18:34:42;0;0;
55911;PMS5003;41823;45.534;-73.332;2022-10-03T18:40:23;0;0;
55911;PMS5003;41823;45.534;-73.332;2022-10-03T18:42:54;0;0;